Time;durP1;ratioP1;P1;durP2;ratioP2;P2;SDS_P1;SDS_P2;PMS_P1;PMS_P2;Temp;Humidity;BMP_temperature;BMP_pressure;BME280_temperature;BME280_humidity;BME280_pressure;Samples;Min_cycle;Max_cycle;Signal;HPM_P1;HPM_P2
2022/03/01 00:00:39;;;;;;;14.25;8.05;;;;;;;;;;5038458;28;20025;-82
2022/03/01 00:03:05;;;;;;;14.35;7.10;;;;;;;;;;5033369;28;20033;-83
2022/03/01 00:05:31;;;;;;;14.60;7.95;;;;;;;;;;5029645;28;20061;-83
2022/03/01 00:07:57;;;;;;;18.80;8.95;;;;;;;;;;5030901;28;20073;-83
2022/03/01 00:10:23;;;;;;;14.38;7.95;;;;;;;;;;5032027;28;20056;-81
2022/03/01 00:12:49;;;;;;;18.05;8.52;;;;;;;;;;5024664;28;20022;-78
2022/03/01 00:15:15;;;;;;;15.38;7.95;;;;;;;;;;5027769;28;20022;-81
2022/03/01 00:17:41;;;;;;;17.08;8.07;;;;;;;;;;5040232;28;20053;-82
2022/03/01 00:20:08;;;;;;;15.90;8.10;;;;;;;;;;5030457;28;20026;-80
2022/03/01 00:22:34;;;;;;;14.43;8.35;;;;;;;;;;5027128;28;20022;-81
2022/03/01 00:25:00;;;;;;;17.40;8.45;;;;;;;;;;5027491;28;20056;-82
2022/03/01 00:27:26;;;;;;;18.52;8.95;;;;;;;;;;5023559;28;20055;-82
2022/03/01 00:29:52;;;;;;;19.88;8.40;;;;;;;;;;5022943;28;20029;-81
2022/03/01 00:32:18;;;;;;;12.77;7.88;;;;;;;;;;5022399;28;20040;-82
2022/03/01 00:34:44;;;;;;;17.38;8.73;;;;;;;;;;5020559;28;20038;-82
2022/03/01 00:37:10;;;;;;;20.05;8.95;;;;;;;;;;5021159;28;20105;-83
2022/03/01 00:39:36;;;;;;;18.35;8.73;;;;;;;;;;5021180;28;20037;-81
2022/03/01 00:42:02;;;;;;;19.23;8.20;;;;;;;;;;5036283;28;20027;-81
2022/03/01 00:44:28;;;;;;;21.95;9.20;;;;;;;;;;5021164;28;20026;-81
2022/03/01 00:46:54;;;;;;;14.80;7.40;;;;;;;;;;5018759;28;20037;-82
2022/03/01 00:49:20;;;;;;;17.33;7.75;;;;;;;;;;5020175;28;20030;-83
2022/03/01 00:51:46;;;;;;;15.50;8.80;;;;;;;;;;5020379;28;20033;-82
2022/03/01 00:54:12;;;;;;;18.20;8.80;;;;;;;;;;5021112;28;20033;-82
2022/03/01 00:56:38;;;;;;;16.23;8.85;;;;;;;;;;5020445;28;20040;-82
2022/03/01 00:59:04;;;;;;;16.92;7.68;;;;;;;;;;5036055;28;20013;-83
2022/03/01 01:01:30;;;;;;;17.02;7.97;;;;;;;;;;5035307;28;20041;-78
2022/03/01 01:03:56;;;;;;;16.90;8.77;;;;;;;;;;5034500;28;20043;-80
2022/03/01 01:06:22;;;;;;;14.55;7.93;;;;;;;;;;5034938;28;20034;-81
2022/03/01 01:08:49;;;;;;;16.75;8.48;;;;;;;;;;5033417;28;20034;-82
2022/03/01 01:11:15;;;;;;;20.75;10.10;;;;;;;;;;5033826;28;20034;-81
2022/03/01 01:13:41;;;;;;;19.33;7.95;;;;;;;;;;5035615;28;20045;-80
2022/03/01 01:16:07;;;;;;;18.83;8.57;;;;;;;;;;5036290;28;20017;-79
2022/03/01 01:18:36;;;;;;;20.40;8.82;;;;;;;;;;5055188;28;20034;-82
2022/03/01 01:21:02;;;;;;;19.70;9.55;;;;;;;;;;5049788;28;20034;-81
2022/03/01 01:23:28;;;;;;;18.92;8.80;;;;;;;;;;5036427;28;20493;-81
2022/03/01 01:25:54;;;;;;;14.52;7.70;;;;;;;;;;5029987;28;20034;-82
2022/03/01 01:28:20;;;;;;;16.25;8.00;;;;;;;;;;5018629;28;20600;-83
2022/03/01 01:30:46;;;;;;;17.98;9.57;;;;;;;;;;5017349;28;20026;-82
2022/03/01 01:33:12;;;;;;;14.95;8.25;;;;;;;;;;5016908;28;20057;-82
2022/03/01 01:35:38;;;;;;;18.40;9.38;;;;;;;;;;5018672;28;20030;-82
2022/03/01 01:38:05;;;;;;;19.00;7.78;;;;;;;;;;5015576;28;20028;-82
2022/03/01 01:40:32;;;;;;;16.88;8.85;;;;;;;;;;5022644;28;20056;-83
2022/03/01 01:42:59;;;;;;;15.38;8.70;;;;;;;;;;5036299;28;20037;-82
2022/03/01 01:45:25;;;;;;;19.33;9.18;;;;;;;;;;5037514;28;20021;-82
2022/03/01 01:47:52;;;;;;;17.15;9.45;;;;;;;;;;5031698;28;20427;-82
2022/03/01 01:50:19;;;;;;;19.42;8.82;;;;;;;;;;5019862;28;20116;-82
2022/03/01 01:52:46;;;;;;;18.42;8.60;;;;;;;;;;5022111;28;20041;-83
2022/03/01 01:55:12;;;;;;;22.63;8.95;;;;;;;;;;5021562;28;20022;-82
2022/03/01 01:57:38;;;;;;;19.33;8.75;;;;;;;;;;5021348;28;20033;-83
2022/03/01 02:00:05;;;;;;;17.35;9.23;;;;;;;;;;5021103;28;20026;-81
2022/03/01 02:02:31;;;;;;;19.42;9.27;;;;;;;;;;5032978;28;20180;-83
2022/03/01 02:04:57;;;;;;;17.90;9.23;;;;;;;;;;5041008;28;20476;-82
2022/03/01 02:07:23;;;;;;;15.80;8.50;;;;;;;;;;5026002;28;20044;-82
2022/03/01 02:09:49;;;;;;;16.30;8.38;;;;;;;;;;5021081;28;20041;-82
2022/03/01 02:12:15;;;;;;;21.10;8.82;;;;;;;;;;5018850;28;20022;-82
2022/03/01 02:14:41;;;;;;;21.13;9.60;;;;;;;;;;5021808;28;20030;-83
2022/03/01 02:17:08;;;;;;;15.55;9.27;;;;;;;;;;5028032;28;20053;-83
2022/03/01 02:19:34;;;;;;;19.88;8.93;;;;;;;;;;5040703;28;20100;-82
2022/03/01 02:22:01;;;;;;;19.35;8.90;;;;;;;;;;5029563;28;20061;-82
2022/03/01 02:24:28;;;;;;;16.83;8.75;;;;;;;;;;5021578;28;20022;-82
2022/03/01 02:27:05;;;;;;;16.77;9.02;;;;;;;;;;5019935;28;20084;-81
2022/03/01 02:29:31;;;;;;;17.67;9.40;;;;;;;;;;5020107;28;20041;-82
2022/03/01 02:31:58;;;;;;;16.00;8.70;;;;;;;;;;5019956;28;20022;-82
2022/03/01 02:34:24;;;;;;;19.83;9.98;;;;;;;;;;5020440;28;20159;-82
2022/03/01 02:36:50;;;;;;;17.55;9.55;;;;;;;;;;5018341;28;20061;-83
2022/03/01 02:39:16;;;;;;;18.88;8.75;;;;;;;;;;5019755;28;20157;-82
2022/03/01 02:41:43;;;;;;;18.10;9.65;;;;;;;;;;5034374;28;20038;-82
2022/03/01 02:44:10;;;;;;;19.73;9.52;;;;;;;;;;5038617;28;20037;-82
2022/03/01 02:46:36;;;;;;;19.13;9.07;;;;;;;;;;5020121;28;20103;-82
2022/03/01 02:49:02;;;;;;;17.77;9.18;;;;;;;;;;5020196;28;20029;-81
2022/03/01 02:51:28;;;;;;;22.73;8.93;;;;;;;;;;5019932;28;20080;-82
2022/03/01 02:53:55;;;;;;;20.23;8.70;;;;;;;;;;5019291;28;20111;-83
2022/03/01 02:56:21;;;;;;;18.80;8.82;;;;;;;;;;5017640;28;20556;-83
2022/03/01 02:58:47;;;;;;;16.63;8.55;;;;;;;;;;5017801;28;20080;-83
2022/03/01 03:01:13;;;;;;;16.25;8.73;;;;;;;;;;5019124;28;20106;-82
2022/03/01 03:03:39;;;;;;;16.52;8.60;;;;;;;;;;5018344;28;20092;-83
2022/03/01 03:06:05;;;;;;;17.23;8.57;;;;;;;;;;5018860;28;20026;-82
2022/03/01 03:08:31;;;;;;;21.00;8.35;;;;;;;;;;5019153;28;20470;-82
2022/03/01 03:10:57;;;;;;;16.17;8.77;;;;;;;;;;5018491;28;20061;-82
2022/03/01 03:13:24;;;;;;;16.90;8.25;;;;;;;;;;5019140;28;20072;-83
2022/03/01 03:15:50;;;;;;;18.95;9.07;;;;;;;;;;5019472;28;20094;-82
2022/03/01 03:18:17;;;;;;;18.38;8.48;;;;;;;;;;5037127;28;20109;-82
2022/03/01 03:20:43;;;;;;;20.80;8.32;;;;;;;;;;5037316;28;20141;-82
2022/03/01 03:23:09;;;;;;;16.58;8.48;;;;;;;;;;5019392;28;20034;-82
2022/03/01 03:25:36;;;;;;;18.05;8.40;;;;;;;;;;5019463;28;20109;-80
2022/03/01 03:28:02;;;;;;;20.52;9.18;;;;;;;;;;5018984;28;20545;-83
2022/03/01 03:30:28;;;;;;;16.17;8.32;;;;;;;;;;5018406;28;20033;-83
2022/03/01 03:32:54;;;;;;;18.98;8.50;;;;;;;;;;5018694;28;20038;-83
2022/03/01 03:35:20;;;;;;;18.13;8.45;;;;;;;;;;5019994;28;20113;-83
2022/03/01 03:37:46;;;;;;;16.60;7.80;;;;;;;;;;5019235;28;20026;-83
2022/03/01 03:40:12;;;;;;;20.85;8.38;;;;;;;;;;5021003;28;20379;-82
2022/03/01 03:42:39;;;;;;;16.15;7.82;;;;;;;;;;5023498;28;20036;-82
2022/03/01 03:45:06;;;;;;;18.83;8.60;;;;;;;;;;5019607;28;20026;-82
2022/03/01 03:47:32;;;;;;;21.45;8.05;;;;;;;;;;5019250;28;20108;-82
2022/03/01 03:49:58;;;;;;;16.55;8.68;;;;;;;;;;5019052;28;20026;-82
2022/03/01 03:52:24;;;;;;;17.88;8.88;;;;;;;;;;5018157;28;20490;-83
2022/03/01 03:54:50;;;;;;;17.90;8.65;;;;;;;;;;5017530;28;20030;-81
2022/03/01 03:57:17;;;;;;;21.05;7.72;;;;;;;;;;5018224;28;20037;-82
2022/03/01 03:59:43;;;;;;;16.00;8.45;;;;;;;;;;5018141;28;20038;-80
2022/03/01 04:02:09;;;;;;;16.52;7.75;;;;;;;;;;5018881;28;20347;-82
2022/03/01 04:04:35;;;;;;;15.27;7.93;;;;;;;;;;5018734;28;20465;-83
2022/03/01 04:07:01;;;;;;;16.70;7.97;;;;;;;;;;5023605;28;20116;-82
2022/03/01 04:09:27;;;;;;;15.32;8.38;;;;;;;;;;5013379;28;20057;-82
2022/03/01 04:11:53;;;;;;;20.08;8.73;;;;;;;;;;5015386;28;20030;-82
2022/03/01 04:14:20;;;;;;;21.20;9.25;;;;;;;;;;5018932;28;20033;-82
2022/03/01 04:16:46;;;;;;;23.25;9.40;;;;;;;;;;5022402;28;20056;-82
2022/03/01 04:19:12;;;;;;;18.30;9.02;;;;;;;;;;5026760;28;20758;-82
2022/03/01 04:21:39;;;;;;;20.40;8.52;;;;;;;;;;5017919;28;20101;-83
2022/03/01 04:24:06;;;;;;;17.90;8.75;;;;;;;;;;5018177;28;20109;-83
2022/03/01 04:26:32;;;;;;;15.10;8.73;;;;;;;;;;5018112;28;20057;-82
2022/03/01 04:28:57;;;;;;;18.00;7.95;;;;;;;;;;5017611;28;20478;-82
2022/03/01 04:31:23;;;;;;;18.35;8.57;;;;;;;;;;5016571;28;20029;-81
2022/03/01 04:33:49;;;;;;;16.63;8.85;;;;;;;;;;5017657;28;20066;-81
2022/03/01 04:36:16;;;;;;;17.67;8.13;;;;;;;;;;5019163;28;20022;-85
2022/03/01 04:38:42;;;;;;;19.60;8.07;;;;;;;;;;5026449;28;20026;-83
2022/03/01 04:41:09;;;;;;;20.52;9.50;;;;;;;;;;5034093;28;20025;-83
2022/03/01 04:43:35;;;;;;;20.70;8.60;;;;;;;;;;5046229;28;20028;-84
2022/03/01 04:46:01;;;;;;;22.90;9.25;;;;;;;;;;5038632;28;20126;-84
2022/03/01 04:48:27;;;;;;;15.57;8.30;;;;;;;;;;5021090;28;20049;-84
2022/03/01 04:50:54;;;;;;;18.08;7.90;;;;;;;;;;5025158;28;20030;-84
2022/03/01 04:53:20;;;;;;;18.55;8.43;;;;;;;;;;5022760;28;20029;-84
2022/03/01 04:55:46;;;;;;;16.05;8.07;;;;;;;;;;5022102;28;20021;-84
2022/03/01 04:58:12;;;;;;;17.35;9.20;;;;;;;;;;5017895;28;20033;-84
2022/03/01 05:00:38;;;;;;;15.90;7.60;;;;;;;;;;5017448;28;20030;-84
2022/03/01 05:03:04;;;;;;;16.73;8.32;;;;;;;;;;5016357;28;20577;-84
2022/03/01 05:05:30;;;;;;;17.27;8.30;;;;;;;;;;5016605;28;20026;-84
2022/03/01 05:07:56;;;;;;;17.13;7.82;;;;;;;;;;5015984;28;20029;-81
2022/03/01 05:10:22;;;;;;;15.40;8.35;;;;;;;;;;5015793;28;20112;-84
2022/03/01 05:12:53;;;;;;;19.88;8.02;;;;;;;;;;5015258;28;20041;-82
2022/03/01 05:15:20;;;;;;;16.60;8.65;;;;;;;;;;4996158;28;20057;-82
2022/03/01 05:17:47;;;;;;;15.00;7.28;;;;;;;;;;5016173;28;20478;-81
2022/03/01 05:20:14;;;;;;;17.60;9.20;;;;;;;;;;5016700;28;20101;-82
2022/03/01 05:22:41;;;;;;;20.52;9.18;;;;;;;;;;5015750;28;20037;-85
2022/03/01 05:25:11;;;;;;;21.75;8.85;;;;;;;;;;5015984;28;20041;-84
2022/03/01 05:27:38;;;;;;;16.63;8.07;;;;;;;;;;5017093;28;20107;-83
2022/03/01 05:30:05;;;;;;;17.85;8.25;;;;;;;;;;5017731;28;20042;-84
2022/03/01 05:32:33;;;;;;;17.65;8.63;;;;;;;;;;5021993;28;20045;-85
2022/03/01 05:34:59;;;;;;;18.25;8.57;;;;;;;;;;5034861;28;20501;-83
2022/03/01 05:37:25;;;;;;;18.05;8.63;;;;;;;;;;5020080;28;20085;-83
2022/03/01 05:39:51;;;;;;;15.98;8.40;;;;;;;;;;5015052;28;20034;-84
2022/03/01 05:42:18;;;;;;;18.45;8.63;;;;;;;;;;5017517;28;20017;-83
2022/03/01 05:44:44;;;;;;;19.90;8.38;;;;;;;;;;5015712;28;20390;-83
2022/03/01 05:47:10;;;;;;;20.10;7.70;;;;;;;;;;5010515;28;20029;-83
2022/03/01 05:49:36;;;;;;;21.90;8.50;;;;;;;;;;5018716;28;20036;-82
2022/03/01 05:52:03;;;;;;;19.42;7.20;;;;;;;;;;5036039;28;20022;-83
2022/03/01 05:54:29;;;;;;;16.75;8.45;;;;;;;;;;5034890;28;20054;-83
2022/03/01 05:56:55;;;;;;;20.13;8.63;;;;;;;;;;5032248;28;20492;-83
2022/03/01 05:59:21;;;;;;;23.48;10.18;;;;;;;;;;5017021;28;20029;-82
2022/03/01 06:01:47;;;;;;;20.20;8.88;;;;;;;;;;5015753;28;20071;-85
2022/03/01 06:04:13;;;;;;;19.40;8.70;;;;;;;;;;5017820;28;20034;-83
2022/03/01 06:06:39;;;;;;;20.35;9.00;;;;;;;;;;5021304;28;20121;-83
2022/03/01 06:09:05;;;;;;;19.27;9.45;;;;;;;;;;5033980;28;20036;-82
2022/03/01 06:11:32;;;;;;;19.15;9.27;;;;;;;;;;5035377;28;20037;-82
2022/03/01 06:13:58;;;;;;;19.83;8.63;;;;;;;;;;5036389;28;20029;-82
2022/03/01 06:16:24;;;;;;;18.73;8.65;;;;;;;;;;5026608;28;20030;-83
2022/03/01 06:18:50;;;;;;;19.13;9.52;;;;;;;;;;5028213;28;20478;-84
2022/03/01 06:21:16;;;;;;;21.70;10.10;;;;;;;;;;5016137;28;20054;-85
2022/03/01 06:23:42;;;;;;;23.95;10.20;;;;;;;;;;5016094;28;20133;-84
2022/03/01 06:26:08;;;;;;;26.60;9.73;;;;;;;;;;5014168;28;20139;-85
2022/03/01 06:28:35;;;;;;;21.77;9.75;;;;;;;;;;5017400;28;20109;-85
2022/03/01 06:31:01;;;;;;;22.27;8.52;;;;;;;;;;5017937;28;20036;-87
2022/03/01 06:33:27;;;;;;;21.90;8.98;;;;;;;;;;5021111;28;20030;-86
2022/03/01 06:35:53;;;;;;;23.52;9.15;;;;;;;;;;5021437;28;20076;-86
2022/03/01 06:38:19;;;;;;;22.00;9.20;;;;;;;;;;5022800;28;20029;-86
2022/03/01 06:40:45;;;;;;;23.58;9.35;;;;;;;;;;5027201;28;20439;-85
2022/03/01 06:43:11;;;;;;;19.67;9.13;;;;;;;;;;5024478;28;20034;-87
2022/03/01 06:45:37;;;;;;;18.23;8.13;;;;;;;;;;5022138;28;20095;-85
2022/03/01 06:48:04;;;;;;;16.38;7.63;;;;;;;;;;5027225;28;20026;-86
2022/03/01 06:50:32;;;;;;;16.98;8.07;;;;;;;;;;5021310;28;20151;-86
2022/03/01 06:52:58;;;;;;;17.83;8.05;;;;;;;;;;5022375;28;20037;-85
2022/03/01 06:55:24;;;;;;;17.17;8.25;;;;;;;;;;5006064;28;20022;-86
2022/03/01 06:57:50;;;;;;;17.40;8.15;;;;;;;;;;5005510;28;20026;-85
2022/03/01 07:00:17;;;;;;;16.35;7.93;;;;;;;;;;4998655;28;20037;-86
2022/03/01 07:02:43;;;;;;;16.48;8.18;;;;;;;;;;5000616;28;20018;-86
2022/03/01 07:05:11;;;;;;;20.23;8.95;;;;;;;;;;5009623;28;20593;-85
2022/03/01 07:07:37;;;;;;;22.65;8.57;;;;;;;;;;5004945;28;20033;-87
2022/03/01 07:10:04;;;;;;;22.38;8.98;;;;;;;;;;5018213;28;20107;-85
2022/03/01 07:12:30;;;;;;;18.45;8.02;;;;;;;;;;5015132;28;20120;-85
2022/03/01 07:14:56;;;;;;;20.17;7.97;;;;;;;;;;4998814;28;20109;-85
2022/03/01 07:17:22;;;;;;;20.70;8.98;;;;;;;;;;5009721;28;20030;-85
2022/03/01 07:19:49;;;;;;;17.38;8.13;;;;;;;;;;5022603;28;20049;-86
2022/03/01 07:22:15;;;;;;;18.55;8.70;;;;;;;;;;5030046;28;20025;-84
2022/03/01 07:24:41;;;;;;;22.48;8.75;;;;;;;;;;5003090;28;20121;-85
2022/03/01 07:27:07;;;;;;;17.75;8.35;;;;;;;;;;5012634;28;20022;-82
2022/03/01 07:29:33;;;;;;;20.30;9.10;;;;;;;;;;5018262;28;20042;-84
2022/03/01 07:32:00;;;;;;;24.17;8.98;;;;;;;;;;5019805;28;20026;-85
2022/03/01 07:34:26;;;;;;;18.63;8.68;;;;;;;;;;5019852;28;20172;-86
2022/03/01 07:36:52;;;;;;;20.05;8.77;;;;;;;;;;5020938;28;20026;-86
2022/03/01 07:39:18;;;;;;;21.63;8.82;;;;;;;;;;5018659;28;20061;-85
2022/03/01 07:41:44;;;;;;;18.80;8.73;;;;;;;;;;5020053;28;20025;-88
2022/03/01 07:44:10;;;;;;;20.17;8.25;;;;;;;;;;5018265;28;20080;-84
2022/03/01 07:46:36;;;;;;;16.90;7.72;;;;;;;;;;5012748;28;20084;-86
2022/03/01 07:49:03;;;;;;;18.63;8.70;;;;;;;;;;4998938;28;20053;-86
2022/03/01 07:51:29;;;;;;;17.80;7.70;;;;;;;;;;4999759;28;20026;-83
2022/03/01 07:53:55;;;;;;;17.20;8.70;;;;;;;;;;4999194;28;20041;-85
2022/03/01 07:56:21;;;;;;;17.70;9.20;;;;;;;;;;5017656;28;20037;-87
2022/03/01 07:58:48;;;;;;;17.77;8.20;;;;;;;;;;5025336;28;20018;-87
2022/03/01 08:01:14;;;;;;;20.85;8.38;;;;;;;;;;5014714;28;20040;-86
2022/03/01 08:03:40;;;;;;;16.67;8.27;;;;;;;;;;5015166;28;20080;-87
2022/03/01 08:06:06;;;;;;;17.77;8.30;;;;;;;;;;5016956;28;20485;-87
2022/03/01 08:08:32;;;;;;;21.88;9.40;;;;;;;;;;5007179;28;20064;-86
2022/03/01 08:10:58;;;;;;;16.42;8.15;;;;;;;;;;4997135;28;20049;-87
2022/03/01 08:13:25;;;;;;;18.77;7.05;;;;;;;;;;4995460;28;20581;-88
2022/03/01 08:15:51;;;;;;;20.55;8.35;;;;;;;;;;4998048;28;20038;-87
2022/03/01 08:18:17;;;;;;;16.80;8.90;;;;;;;;;;5023110;28;20513;-88
2022/03/01 08:20:43;;;;;;;16.10;8.00;;;;;;;;;;5014611;28;20034;-88
2022/03/01 08:23:09;;;;;;;16.52;8.73;;;;;;;;;;5014339;28;20022;-88
2022/03/01 08:25:35;;;;;;;25.48;11.00;;;;;;;;;;5012483;28;20045;-87
2022/03/01 08:28:02;;;;;;;22.70;10.90;;;;;;;;;;5013212;28;20080;-89
2022/03/01 08:30:29;;;;;;;20.75;9.90;;;;;;;;;;5012607;28;20045;-87
2022/03/01 08:32:55;;;;;;;25.23;12.10;;;;;;;;;;5013602;28;20065;-86
2022/03/01 08:35:22;;;;;;;16.50;9.13;;;;;;;;;;5014249;28;20041;-88
2022/03/01 08:37:48;;;;;;;21.65;10.38;;;;;;;;;;5011992;28;20050;-88
2022/03/01 08:40:15;;;;;;;17.80;7.97;;;;;;;;;;5015227;28;20497;-89
2022/03/01 08:42:41;;;;;;;14.75;8.38;;;;;;;;;;5032082;28;20095;-88
2022/03/01 08:45:29;;;;;;;14.00;8.00;;;;;;;;;;5026779;28;20026;-88
2022/03/01 08:48:03;;;;;;;16.75;8.07;;;;;;;;;;5005267;28;20046;-88
2022/03/01 08:50:30;;;;;;;17.67;7.40;;;;;;;;;;5003328;28;20394;-87
2022/03/01 08:52:56;;;;;;;13.55;8.13;;;;;;;;;;5007592;28;20029;-87
2022/03/01 08:55:22;;;;;;;18.30;8.18;;;;;;;;;;5001797;28;20091;-87
2022/03/01 08:57:48;;;;;;;12.90;8.43;;;;;;;;;;5012371;28;20038;-89
2022/03/01 09:00:15;;;;;;;13.07;7.85;;;;;;;;;;5013261;28;20367;-87
2022/03/01 09:02:42;;;;;;;16.10;8.65;;;;;;;;;;5013809;28;20025;-87
2022/03/01 09:05:08;;;;;;;16.13;8.73;;;;;;;;;;5013373;28;20022;-87
2022/03/01 09:07:35;;;;;;;11.80;6.88;;;;;;;;;;5002989;28;20030;-87
2022/03/01 09:10:01;;;;;;;17.98;8.45;;;;;;;;;;4998649;28;20041;-86
2022/03/01 09:12:27;;;;;;;17.30;8.70;;;;;;;;;;5014550;28;20022;-86
2022/03/01 09:14:53;;;;;;;14.75;8.55;;;;;;;;;;5013513;28;20083;-87
2022/03/01 09:17:20;;;;;;;18.40;9.60;;;;;;;;;;5016521;28;20025;-87
2022/03/01 09:19:46;;;;;;;16.40;9.05;;;;;;;;;;5012927;28;20018;-86
2022/03/01 09:22:13;;;;;;;13.70;8.75;;;;;;;;;;5013554;28;20089;-86
2022/03/01 09:24:40;;;;;;;15.77;8.75;;;;;;;;;;5013615;28;20033;-86
2022/03/01 09:27:06;;;;;;;13.63;8.88;;;;;;;;;;5000368;28;20084;-85
2022/03/01 09:29:34;;;;;;;15.50;8.15;;;;;;;;;;5002009;28;20092;-87
2022/03/01 09:32:01;;;;;;;16.77;9.52;;;;;;;;;;5002616;28;20028;-87
2022/03/01 09:34:27;;;;;;;21.60;9.40;;;;;;;;;;4997042;28;20103;-87
2022/03/01 09:36:54;;;;;;;18.98;9.25;;;;;;;;;;5013927;28;20550;-87
2022/03/01 09:39:20;;;;;;;14.85;8.57;;;;;;;;;;5014247;28;20026;-87
2022/03/01 09:41:47;;;;;;;13.60;8.07;;;;;;;;;;5013718;28;20049;-87
2022/03/01 09:44:13;;;;;;;16.50;9.13;;;;;;;;;;5002573;28;20093;-86
2022/03/01 09:46:39;;;;;;;14.48;8.07;;;;;;;;;;5009060;28;20485;-87
2022/03/01 09:49:06;;;;;;;14.18;7.97;;;;;;;;;;5015499;28;20057;-87
2022/03/01 09:51:33;;;;;;;14.65;8.23;;;;;;;;;;5020076;28;20342;-88
2022/03/01 09:53:59;;;;;;;16.65;8.30;;;;;;;;;;5025043;28;20451;-87
2022/03/01 09:56:25;;;;;;;15.70;8.98;;;;;;;;;;5021009;28;20097;-89
2022/03/01 09:58:51;;;;;;;14.25;7.80;;;;;;;;;;5020097;28;20029;-87
2022/03/01 10:01:18;;;;;;;12.90;7.85;;;;;;;;;;5008924;28;20082;-88
2022/03/01 10:03:53;;;;;;;13.85;7.20;;;;;;;;;;5013872;28;20044;-86
2022/03/01 10:06:23;;;;;;;14.38;7.30;;;;;;;;;;5012980;28;20026;-85
2022/03/01 10:08:55;;;;;;;13.40;7.07;;;;;;;;;;5012850;28;20026;-85
2022/03/01 10:11:22;;;;;;;13.10;7.72;;;;;;;;;;5017186;28;20034;-86
2022/03/01 10:13:48;;;;;;;14.77;7.50;;;;;;;;;;5018707;28;20096;-87
2022/03/01 10:16:15;;;;;;;14.70;6.85;;;;;;;;;;5029111;28;20514;-85
2022/03/01 10:18:43;;;;;;;12.25;6.85;;;;;;;;;;4997501;28;20034;-86
2022/03/01 10:21:11;;;;;;;11.23;7.00;;;;;;;;;;4997227;28;20053;-88
2022/03/01 10:23:38;;;;;;;13.93;6.97;;;;;;;;;;4995860;28;20366;-87
2022/03/01 10:26:14;;;;;;;11.63;6.10;;;;;;;;;;4996944;28;20452;-88
2022/03/01 10:28:41;;;;;;;11.60;7.43;;;;;;;;;;4996184;28;20026;-87
2022/03/01 10:31:14;;;;;;;10.00;6.60;;;;;;;;;;4995424;28;20031;-86
2022/03/01 10:33:41;;;;;;;12.52;7.10;;;;;;;;;;4996317;28;20121;-85
2022/03/01 10:36:07;;;;;;;10.30;7.25;;;;;;;;;;4996978;28;20027;-86
2022/03/01 10:38:35;;;;;;;11.40;6.80;;;;;;;;;;4997134;28;20158;-88
2022/03/01 10:41:02;;;;;;;15.18;6.95;;;;;;;;;;5012188;28;20022;-87
2022/03/01 10:43:29;;;;;;;10.23;6.15;;;;;;;;;;5014665;28;20036;-87
2022/03/01 10:45:56;;;;;;;14.52;7.28;;;;;;;;;;5016673;28;20034;-86
2022/03/01 10:48:25;;;;;;;12.75;6.95;;;;;;;;;;5016041;28;20488;-87
2022/03/01 10:51:02;;;;;;;11.68;6.45;;;;;;;;;;5016059;28;20126;-87
2022/03/01 10:53:42;;;;;;;11.48;6.35;;;;;;;;;;5015234;28;20026;-88
2022/03/01 10:56:12;;;;;;;11.82;6.20;;;;;;;;;;5015058;28;20026;-87
2022/03/01 10:58:39;;;;;;;9.38;6.40;;;;;;;;;;5016547;28;20053;-87
2022/03/01 11:01:06;;;;;;;9.70;6.03;;;;;;;;;;5017180;28;20382;-88
2022/03/01 11:03:32;;;;;;;11.35;6.00;;;;;;;;;;5017463;28;20439;-86
2022/03/01 11:05:58;;;;;;;9.10;6.22;;;;;;;;;;5016006;28;20030;-87
2022/03/01 11:08:34;;;;;;;10.13;5.63;;;;;;;;;;5015808;28;20037;-87
2022/03/01 11:11:01;;;;;;;11.13;6.13;;;;;;;;;;5017473;28;20057;-89
2022/03/01 11:13:27;;;;;;;10.00;5.90;;;;;;;;;;5015508;28;20418;-87
2022/03/01 11:15:53;;;;;;;11.70;5.65;;;;;;;;;;5015617;28;20533;-86
2022/03/01 11:18:31;;;;;;;8.98;5.97;;;;;;;;;;5033384;28;20029;-88
2022/03/01 11:20:58;;;;;;;11.45;6.28;;;;;;;;;;5032866;28;20021;-87
2022/03/01 11:23:26;;;;;;;7.47;5.03;;;;;;;;;;5032943;28;20094;-88
2022/03/01 11:25:53;;;;;;;14.75;6.30;;;;;;;;;;5034060;28;20112;-87
2022/03/01 11:28:28;;;;;;;10.52;5.93;;;;;;;;;;5034356;28;20103;-87
2022/03/01 11:30:55;;;;;;;10.75;5.43;;;;;;;;;;5032533;28;20040;-86
2022/03/01 11:33:29;;;;;;;10.02;5.60;;;;;;;;;;5034104;28;20041;-87
2022/03/01 11:35:57;;;;;;;9.40;5.45;;;;;;;;;;5034381;28;20480;-86
2022/03/01 11:38:30;;;;;;;9.02;5.57;;;;;;;;;;5033903;28;20031;-86
2022/03/01 11:41:07;;;;;;;9.40;5.43;;;;;;;;;;5025708;28;20087;-86
2022/03/01 11:43:36;;;;;;;8.52;5.25;;;;;;;;;;5014688;28;20116;-87
2022/03/01 11:46:17;;;;;;;9.68;5.63;;;;;;;;;;5025912;28;20032;-87
2022/03/01 11:48:52;;;;;;;8.60;5.38;;;;;;;;;;5015363;28;20080;-86
2022/03/01 11:51:18;;;;;;;9.45;5.70;;;;;;;;;;5006473;28;20030;-84
2022/03/01 11:53:49;;;;;;;10.20;6.20;;;;;;;;;;5007098;28;20092;-85
2022/03/01 11:56:15;;;;;;;10.80;6.60;;;;;;;;;;5021411;28;20024;-84
2022/03/01 11:58:47;;;;;;;9.38;6.38;;;;;;;;;;5007019;28;20478;-86
2022/03/01 12:01:12;;;;;;;9.90;5.45;;;;;;;;;;5011328;28;20025;-85
2022/03/01 12:03:39;;;;;;;13.18;6.20;;;;;;;;;;5012306;28;20505;-84
2022/03/01 12:06:06;;;;;;;11.55;5.50;;;;;;;;;;5007077;28;20034;-84
2022/03/01 12:08:32;;;;;;;10.77;5.68;;;;;;;;;;5016501;28;20034;-86
2022/03/01 12:10:58;;;;;;;11.10;5.70;;;;;;;;;;5003360;28;20126;-86
2022/03/01 12:13:35;;;;;;;10.00;5.95;;;;;;;;;;4995457;28;20046;-86
2022/03/01 12:16:01;;;;;;;16.08;5.90;;;;;;;;;;4998845;28;20025;-86
2022/03/01 12:18:28;;;;;;;11.15;6.60;;;;;;;;;;5011453;28;20041;-86
2022/03/01 12:20:54;;;;;;;13.13;6.78;;;;;;;;;;5007650;28;20113;-86
2022/03/01 12:23:28;;;;;;;10.65;5.88;;;;;;;;;;5020783;28;20037;-86
2022/03/01 12:25:54;;;;;;;10.13;6.07;;;;;;;;;;5016757;28;20057;-85
2022/03/01 12:28:22;;;;;;;8.65;5.63;;;;;;;;;;5026779;28;20493;-87
2022/03/01 12:30:48;;;;;;;10.80;5.47;;;;;;;;;;5014250;28;20091;-87
2022/03/01 12:33:15;;;;;;;9.18;5.03;;;;;;;;;;5014095;28;20418;-86
2022/03/01 12:35:41;;;;;;;7.30;4.35;;;;;;;;;;5012653;28;20029;-88
2022/03/01 12:38:24;;;;;;;7.68;5.00;;;;;;;;;;5012695;28;20037;-87
2022/03/01 12:40:54;;;;;;;10.80;5.35;;;;;;;;;;5009879;28;20486;-88
2022/03/01 12:43:22;;;;;;;12.35;5.80;;;;;;;;;;5012103;28;20044;-87
2022/03/01 12:45:48;;;;;;;9.38;5.55;;;;;;;;;;5011509;28;20030;-86
2022/03/01 12:48:22;;;;;;;11.55;6.18;;;;;;;;;;5013471;28;20099;-87
2022/03/01 12:50:49;;;;;;;10.18;5.55;;;;;;;;;;5012974;28;20025;-87
2022/03/01 12:53:16;;;;;;;10.70;6.13;;;;;;;;;;5014131;28;20022;-89
2022/03/01 12:55:58;;;;;;;10.27;5.85;;;;;;;;;;5016759;28;20172;-87
2022/03/01 13:01:46;;;;;;;9.50;5.32;;;;;;;;;;4993468;28;20552;-87
2022/03/01 13:04:30;;;;;;;8.77;5.35;;;;;;;;;;4994270;28;20038;-87
2022/03/01 13:10:19;;;;;;;;;;;;;;;;;;;;;
2022/03/01 13:13:15;;;;;;;11.68;5.90;;;;;;;;;;5012982;28;20513;-87
2022/03/01 13:15:50;;;;;;;10.20;5.28;;;;;;;;;;5009653;28;20092;-85
2022/03/01 13:18:24;;;;;;;10.15;5.35;;;;;;;;;;5028647;28;20041;-88
2022/03/01 13:20:50;;;;;;;11.02;5.72;;;;;;;;;;5032674;28;20056;-88
2022/03/01 13:24:08;;;;;;;8.63;5.22;;;;;;;;;;5031526;28;20485;-87
2022/03/01 13:29:45;;;;;;;11.68;5.72;;;;;;;;;;4943062;29;20039;-87
2022/03/01 13:32:11;;;;;;;11.05;6.50;;;;;;;;;;5067318;22;20107;-87
2022/03/01 13:34:44;;;;;;;10.85;6.10;;;;;;;;;;5051346;28;20029;-90
2022/03/01 13:50:37;;;;;;;9.85;5.70;;;;;;;;;;1567425;22;20339;-86
2022/03/01 13:53:23;;;;;;;12.35;6.50;;;;;;;;;;5014144;28;20052;-89
2022/03/01 13:58:38;;;;;;;10.95;6.10;;;;;;;;;;5010308;28;20104;-89
2022/03/01 14:01:06;;;;;;;11.57;7.05;;;;;;;;;;5010419;28;20045;-88
2022/03/01 14:03:35;;;;;;;12.57;6.47;;;;;;;;;;5015722;28;20033;-88
2022/03/01 14:06:08;;;;;;;11.77;6.43;;;;;;;;;;5020576;28;20024;-88
2022/03/01 14:08:35;;;;;;;10.90;5.95;;;;;;;;;;5014864;28;20033;-86
2022/03/01 14:11:02;;;;;;;12.25;6.78;;;;;;;;;;5014511;28;20129;-85
2022/03/01 14:13:31;;;;;;;10.75;6.35;;;;;;;;;;5013817;28;20034;-85
2022/03/01 14:16:09;;;;;;;10.43;6.25;;;;;;;;;;5000074;28;20402;-83
2022/03/01 14:18:42;;;;;;;11.07;6.28;;;;;;;;;;5005258;28;20026;-88
2022/03/01 14:21:12;;;;;;;9.27;6.97;;;;;;;;;;5014816;28;20033;-86
2022/03/01 14:23:39;;;;;;;9.13;6.30;;;;;;;;;;5009762;28;20032;-87
2022/03/01 14:26:06;;;;;;;10.43;5.95;;;;;;;;;;5014158;28;20030;-87
2022/03/01 14:28:32;;;;;;;10.32;6.38;;;;;;;;;;5015562;28;20029;-87
2022/03/01 14:30:59;;;;;;;11.25;6.80;;;;;;;;;;5014449;28;20552;-87
2022/03/01 14:33:26;;;;;;;11.40;6.00;;;;;;;;;;5016379;28;20033;-85
2022/03/01 14:35:52;;;;;;;8.43;5.70;;;;;;;;;;5016112;28;20033;-86
2022/03/01 14:38:18;;;;;;;12.07;6.50;;;;;;;;;;5016569;28;20110;-84
2022/03/01 14:40:44;;;;;;;12.00;6.18;;;;;;;;;;5010016;28;20466;-87
2022/03/01 14:43:10;;;;;;;9.30;5.72;;;;;;;;;;4995941;28;20037;-86
2022/03/01 14:45:37;;;;;;;9.68;6.03;;;;;;;;;;4996543;28;20018;-87
2022/03/01 14:48:05;;;;;;;12.48;6.72;;;;;;;;;;4996077;28;20030;-87
2022/03/01 14:50:31;;;;;;;8.90;6.18;;;;;;;;;;5008802;28;20033;-87
2022/03/01 14:52:57;;;;;;;10.32;5.80;;;;;;;;;;5012828;28;20100;-86
2022/03/01 14:55:23;;;;;;;9.70;5.30;;;;;;;;;;5000728;28;20034;-87
2022/03/01 14:57:49;;;;;;;12.15;6.85;;;;;;;;;;5015213;28;20029;-86